首页
METAR-TAF:

METAR-TAF

机场 :

赤塔機場

赤塔, 俄罗斯

纬度: 52-05N, 经度: 113-29E, 海拔: 685米

当前天气观测

该预报发布于34分钟前的16:00 UTC
风速2节,风向西转西南
温度 -25°C
湿度 76%
气压 1021 hPa
能见度10公里或以上

METAR: UIAA 211600Z AUTO 25001MPS 9999 NCD M25/M28 Q1021 RMK QFE707/0943

时间: 01:34 (16:34 UTC)

预报

该预报发布于2小时和34分钟前的14:00 UTC
预报有效从21日的 15点(UTC)到 22日的 15点(UTC)
风速6节,风向西转西北
能見度: 3100
散云层高于400英尺
轻雾
短暂存在
从 21日的 18点(UTC)到 22日的 01点(UTC)
能見度: 0500
层高于100英尺
冻雾

TAF: UIAA 211400Z 2115/2215 29003MPS 3100 BR SCT004 TEMPO 2118/2201 0500 FZFG VV001

超过4000个机场的气象观测和天气预报(METAR&TAF报告)。

可查询的气象台以黄色和红色小点在地图上表示。

将鼠标移到小点上方,可查看气象台名称。

然后点击查看天气观测和预报。

如需切换地图:点击带黑十字的绿色按钮放大地图;点击带横线的绿色按钮缩小地图;或者点击绿色箭头查看邻近地区的地图。


METAR-TAF: